• Join FlightAware (Why Join?)
  • Login
  • US Flag 
10:52PM EDT


 

Airport Tracker/Info


-or-


 

Live Flight TrackerFlight Track Log ✈ DAL3799 ✈ 01-May-2013 ✈ KOKC - KATL

Flight Track Log - Related Links

Times and Time Zones

All times are in EDT time to prevent confusion due to time zone crossing. See the DAL3799 flight status page for this flight to view local times or setup timezone preferences in your user account.

Time Position Orientation Groundspeed Altitude Reporting Facility
EDT Latitude Longitude Course Direction KTS MPH feet Rate Location/Type
11:32AM 35.3769 -97.5944 90° East 150 173 1,800  Level Fort Worth Center
11:33AM 35.3644 -97.5486 108° East 199 229 3,000 1,680 Climbing Fort Worth Center
11:34AM 35.3667 -97.4542 88° East 246 283 5,300 2,040 Climbing Fort Worth Center
11:36AM 35.4000 -97.0863 90° East  Level FlightAware Approximate
11:36AM 35.3667 -97.3422 90° East 287 330 7,700  Level Fort Worth Center
11:37AM 35.4000 -96.9576 90° East  Level FlightAware Approximate
11:37AM 35.3747 -97.2431 84° East 293 337 10,300  Level Fort Worth Center
11:38AM 35.4000 -96.8289 90° East  Level FlightAware Approximate
11:38AM 35.3725 -97.1311 91° East 300 345 11,300  Level Fort Worth Center
11:39AM 35.3742 -97.0011 89° East 336 387 12,300 1,500 Climbing Fort Worth Center
11:40AM 35.3781 -96.8661 88° East 375 432 14,400 2,040 Climbing Fort Worth Center
11:41AM 35.3794 -96.7311 89° East 391 450 16,400 1,740 Climbing Fort Worth Center
11:42AM 35.3806 -96.5911 89° East 403 464 17,900 1,500 Climbing Fort Worth Center
11:43AM 35.3817 -96.4511 89° East 403 464 19,500 1,500 Climbing Fort Worth Center
11:44AM 35.3847 -96.3058 88° East 408 470 20,900 1,260 Climbing Fort Worth Center
11:45AM 35.3853 -96.1583 90° East 420 483 22,100 1,200 Climbing Fort Worth Center
11:46AM 35.3858 -96.0081 90° East 432 497 23,300 1,200 Climbing Fort Worth Center
11:47AM 35.3883 -95.8731 89° East 438 504 24,500 1,080 Climbing Fort Worth Center
11:48AM 35.3917 -95.5933 89° East 430 495 26,500 1,020 Climbing Memphis Center
11:49AM 35.3917 -95.4431 90° East 435 501 27,500 1,080 Climbing Memphis Center
11:50AM 35.3917 -95.2903 90° East 440 506 28,700 1,200 Climbing Memphis Center
11:51AM 35.3892 -95.1400 91° East 440 506 29,900 1,200 Climbing Memphis Center
11:52AM 35.3886 -94.9869 90° East 440 506 31,200 1,200 Climbing Memphis Center
11:53AM 35.3900 -94.8394 89° East 440 506 32,400 1,200 Climbing Memphis Center
11:54AM 35.3889 -94.6942 90° East 440 506 33,600 840 Climbing Memphis Center
11:55AM 35.3856 -94.5489 92° East 435 501 34,100 480 Climbing Memphis Center
11:56AM 35.3861 -94.4011 90° East 435 501 34,600 420 Climbing Memphis Center
11:57AM 35.3847 -94.2508 91° East 440 506 35,000 180 Climbing Memphis Center
11:58AM 35.3728 -94.0975 95° East 445 512 35,000  Level Memphis Center
11:59AM 35.3628 -93.9419 94° East 445 512 35,000  Level Memphis Center
12:00PM 35.3503 -93.7886 96° East 450 518 35,000  Level Memphis Center
12:01PM 35.3419 -93.6306 94° East 450 518 35,000  Level Memphis Center
12:02PM 35.3333 -93.4850 94° East 450 518 35,000  Level Memphis Center
12:03PM 35.3206 -93.3217 95° East 455 524 35,000  Level Memphis Center
12:04PM 35.3075 -93.1711 96° East 460 529 35,000  Level Memphis Center
12:05PM 35.2961 -93.0131 95° East 460 529 35,000  Level Memphis Center
12:06PM 35.2831 -92.8397 95° East 465 535 35,000  Level Memphis Center
12:07PM 35.2694 -92.6867 96° East 459 528 35,000  Level Memphis Center
12:08PM 35.2556 -92.5286 96° East 459 528 35,000  Level Memphis Center
12:09PM 35.2453 -92.4011 96° East 467 537 35,000  Level Memphis Center
12:10PM 35.2333 -92.2331 95° East 459 528 35,000  Level Memphis Center
12:11PM 35.2167 -92.0728 97° East 466 536 35,000  Level Memphis Center
12:12PM 35.2019 -91.9200 97° East 459 528 35,000  Level Memphis Center
12:13PM 35.1875 -91.7494 96° East 464 534 35,000  Level Memphis Center
12:14PM 35.1764 -91.5942 95° East 464 534 35,000  Level Memphis Center
12:15PM 35.1614 -91.4392 97° East 459 528 35,000  Level Memphis Center
12:16PM 35.1481 -91.2814 96° East 465 535 35,000  Level Memphis Center
12:17PM 35.1303 -91.1289 98° East 460 529 35,000  Level Memphis Center
12:18PM 35.1164 -90.9764 96° East 461 531 35,000  Level Memphis Center
12:19PM 35.1025 -90.8189 96° East 461 531 35,000  Level Memphis Center
12:20PM 35.0883 -90.6667 96° East 461 531 35,000  Level Memphis Center
12:21PM 35.0719 -90.5169 98° East 456 525 35,000  Level Memphis Center
12:22PM 35.0553 -90.3622 97° East 456 525 35,000  Level Memphis Center
12:23PM 35.0428 -90.2253 96° East 456 525 35,000  Level Memphis Center
12:24PM 35.0258 -90.0681 97° East 461 531 35,000  Level Memphis Center
12:25PM 35.0108 -89.9133 97° East 466 536 35,000  Level Memphis Center
12:26PM 34.9892 -89.7386 99° East 466 536 35,000  Level Memphis Center
12:27PM 34.9589 -89.5817 103° East 475 547 35,000  Level Memphis Center
12:28PM 34.9350 -89.4300 101° East 464 534 35,000  Level Memphis Center
12:29PM 34.9128 -89.2783 100° East 458 527 35,000  Level Memphis Center
12:30PM 34.8886 -89.1317 101° East 446 513 35,000  Level Memphis Center
12:31PM 34.8683 -88.9978 100° East 446 513 35,000  Level Memphis Center
12:32PM 34.8458 -88.8514 101° East 446 513 35,000  Level Memphis Center
12:33PM 34.8231 -88.7078 101° East 446 513 35,000  Level Memphis Center
12:34PM 34.8022 -88.5614 100° East 446 513 35,000  Level Memphis Center
12:35PM 34.7750 -88.4028 102° East 440 506 35,000 -660 Level Memphis Center
12:36PM 34.7517 -88.2517 101° East 446 513 33,700 -1,020 Descending Memphis Center
12:37PM 34.7303 -88.1056 100° East 468 539 33,000 -360 Descending Memphis Center
12:38PM 34.7022 -87.9447 102° East 462 532 33,000  Level Memphis Center
12:39PM 34.6783 -87.7989 101° East 451 519 33,000  Level Memphis Center
12:40PM 34.6544 -87.6481 101° East 451 519 33,000  Level Memphis Center
12:41PM 34.6281 -87.5050 103° East 451 519 33,000  Level Memphis Center
12:43PM 34.5961 -87.3039 101° East 458 527 33,000  Level Atlanta Center
12:44PM 34.5689 -87.1542 102° East 458 527 33,000  Level Atlanta Center
12:45PM 34.5389 -87.0092 104° East 450 518 33,000 -120 Level Atlanta Center
12:46PM 34.5092 -86.8594 104° East 450 518 32,800 -900 Descending Atlanta Center
12:47PM 34.4811 -86.7125 103° East 450 518 31,300 -1,500 Descending Atlanta Center
12:48PM 34.4531 -86.5603 103° East 450 518 29,800 -1,500 Descending Atlanta Center
12:49PM 34.4225 -86.4108 104° East 455 524 28,300 -1,500 Descending Atlanta Center
12:50PM 34.3942 -86.2642 103° East 455 524 26,800 -1,560 Descending Atlanta Center
12:51PM 34.3653 -86.1175 103° East 455 524 25,200 -1,800 Descending Atlanta Center
12:52PM 34.3364 -85.9758 104° East 449 517 23,200 -1,920 Descending Atlanta Center
12:53PM 34.3006 -85.8467 109° East 428 493 21,400 -1,620 Descending Atlanta Center
12:54PM 34.2733 -85.7256 105° East 387 445 20,000 -1,500 Descending Atlanta Center
12:55PM 34.2372 -85.6017 109° East 377 434 18,400 -1,500 Descending Atlanta Center
12:56PM 34.2075 -85.4831 107° East 377 434 17,100 -1,440 Descending Atlanta Center
12:57PM 34.1775 -85.3644 107° East 377 434 15,600 -1,500 Descending Atlanta Center
12:58PM 34.1472 -85.2511 108° East 361 415 14,100 -1,320 Descending Atlanta Center
12:59PM 34.1192 -85.1403 107° East 355 409 13,000 -600 Descending Atlanta Center
01:00PM 34.0867 -85.0322 110° East 344 396 13,000 -180 Level Atlanta Center
01:01PM 34.0286 -84.9661 137° Southeast 322 371 12,700 -960 Descending Atlanta Center
01:02PM 33.9497 -84.9403 165° South 294 338 11,100 -1,560 Descending Atlanta Center
01:03PM 33.8747 -84.9194 167° South 284 327 9,600 -1,080 Descending Atlanta Center
01:04PM 33.7975 -84.8986 167° South 279 321 9,000 -900 Descending Atlanta Center
01:05PM 33.7203 -84.8931 177° South 279 321 7,800 -1,020 Descending Atlanta Center
01:06PM 33.6517 -84.8822 173° South 267 307 7,000 -600 Descending Atlanta Center
01:06PM 33.6333 -84.8500 124° Southeast 248 285 7,000 -480 Level Atlanta TRACON
01:07PM 33.6333 -84.7667 90° East 242 278 6,400 -1,020 Descending Atlanta TRACON
01:08PM 33.6333 -84.7000 90° East 220 253 5,000 -1,440 Descending Atlanta TRACON